createdAt,value
2019-03-04T00:00:36.874Z,94.60
2019-03-04T00:01:36.746Z,94.70
2019-03-04T00:02:36.781Z,94.79
2019-03-04T00:03:36.683Z,94.70
2019-03-04T00:04:36.690Z,94.79
2019-03-04T00:05:36.651Z,94.22
2019-03-04T00:06:36.701Z,94.22
2019-03-04T00:07:36.583Z,94.41
2019-03-04T00:08:36.625Z,93.65
2019-03-04T00:09:36.536Z,93.93
2019-03-04T00:10:36.622Z,94.12
2019-03-04T00:11:36.478Z,93.84
2019-03-04T00:12:36.555Z,93.45
2019-03-04T00:13:36.439Z,93.84
2019-03-04T00:14:36.447Z,93.45
2019-03-04T00:15:36.389Z,93.45
2019-03-04T00:16:36.476Z,93.84
2019-03-04T00:17:36.344Z,93.74
2019-03-04T00:18:36.374Z,92.97
2019-03-04T00:19:36.291Z,93.55
2019-03-04T00:20:36.260Z,92.88
2019-03-04T00:21:36.241Z,93.16
2019-03-04T00:22:36.293Z,92.79
2019-03-04T00:23:36.194Z,93.16
2019-03-04T00:24:36.203Z,93.26
2019-03-04T00:25:36.140Z,92.59
2019-03-04T00:26:36.214Z,92.50
2019-03-04T00:27:36.093Z,92.69
2019-03-04T00:28:36.121Z,92.69
2019-03-04T00:29:36.045Z,92.50
2019-03-04T00:30:36.034Z,92.69
2019-03-04T00:31:36.039Z,92.02
2019-03-04T00:32:35.972Z,92.11
2019-03-04T00:33:36.061Z,92.30
2019-03-04T00:34:35.921Z,92.79
2019-03-04T00:35:35.971Z,92.21
2019-03-04T00:36:35.873Z,92.69
2019-03-04T00:37:35.851Z,92.40
2019-03-04T00:38:35.909Z,92.40
2019-03-04T00:39:35.800Z,92.30
2019-03-04T00:40:35.789Z,92.40
2019-03-04T00:41:35.750Z,92.11
2019-03-04T00:42:35.719Z,92.02
2019-03-04T00:43:35.699Z,91.83
2019-03-04T00:44:35.708Z,92.02
2019-03-04T00:45:35.649Z,91.74
2019-03-04T00:46:35.720Z,92.02
2019-03-04T00:47:35.598Z,91.64
2019-03-04T00:48:35.570Z,92.02
2019-03-04T00:49:35.641Z,92.21
2019-03-04T00:50:35.529Z,92.21
2019-03-04T00:51:35.548Z,91.93
2019-03-04T00:52:35.480Z,91.83
2019-03-04T00:53:35.454Z,92.11
2019-03-04T00:54:35.430Z,92.02
2019-03-04T00:55:35.488Z,92.11
2019-03-04T00:56:35.379Z,92.30
2019-03-04T00:57:35.380Z,91.83
2019-03-04T00:58:35.332Z,91.93
2019-03-04T00:59:35.300Z,91.35
2019-03-04T01:00:35.300Z,92.11
2019-03-04T01:01:35.253Z,91.93
2019-03-04T01:02:35.324Z,91.93
2019-03-04T01:03:35.217Z,92.40
2019-03-04T01:04:35.220Z,92.11
2019-03-04T01:05:35.167Z,91.93
2019-03-04T01:06:35.252Z,92.11
2019-03-04T01:07:35.099Z,92.40
2019-03-04T01:08:35.139Z,92.11
2019-03-04T01:09:35.065Z,91.93
2019-03-04T01:10:35.028Z,92.40
2019-03-04T01:11:35.011Z,92.59
2019-03-04T01:12:35.069Z,92.69
2019-03-04T01:13:34.959Z,93.16
2019-03-04T01:14:34.979Z,92.69
2019-03-04T01:15:34.925Z,93.26
2019-03-04T01:16:34.880Z,92.97
2019-03-04T01:17:34.889Z,93.07
2019-03-04T01:18:34.829Z,93.07
2019-03-04T01:19:34.910Z,93.07
2019-03-04T01:20:34.788Z,93.45
2019-03-04T01:21:34.759Z,93.16
2019-03-04T01:22:34.740Z,93.26
2019-03-04T01:23:34.840Z,92.97
2019-03-04T01:24:34.680Z,93.84
2019-03-04T01:25:34.738Z,93.93
2019-03-04T01:26:34.630Z,93.45
2019-03-04T01:27:34.610Z,93.93
2019-03-04T01:28:34.659Z,94.41
2019-03-04T01:29:34.560Z,94.60
2019-03-04T01:30:34.569Z,94.51
2019-03-04T01:31:34.510Z,95.17
2019-03-04T01:32:34.478Z,95.56
2019-03-04T01:33:34.458Z,95.41
2019-03-04T01:34:34.488Z,95.65
2019-03-04T01:35:34.408Z,95.27
2019-03-04T01:36:34.410Z,95.65
2019-03-04T01:37:34.360Z,95.89
2019-03-04T01:38:34.338Z,96.42
2019-03-04T01:39:34.307Z,96.46
2019-03-04T01:40:34.319Z,96.80
2019-03-04T01:41:34.259Z,96.56
2019-03-04T01:42:34.328Z,96.66
2019-03-04T01:43:34.211Z,96.61
2019-03-04T01:44:34.241Z,97.37
2019-03-04T01:45:34.162Z,98.04
2019-03-04T01:46:34.151Z,97.66
2019-03-04T01:47:34.111Z,97.99
2019-03-04T01:48:34.188Z,97.89
2019-03-04T01:49:34.170Z,98.33
2019-03-04T01:50:34.042Z,98.37
2019-03-04T01:51:34.081Z,99.09
2019-03-04T01:52:33.991Z,98.94
2019-03-04T01:53:33.991Z,99.28
2019-03-04T01:54:33.940Z,99.04
2019-03-04T01:55:34.021Z,98.90
2019-03-04T01:56:33.892Z,99.14
2019-03-04T01:57:33.935Z,99.33
2019-03-04T01:58:33.841Z,98.66
2019-03-04T01:59:33.835Z,99.80
2019-03-04T02:00:33.831Z,99.62
2019-03-04T02:01:33.758Z,99.99
2019-03-04T02:02:33.850Z,99.99
2019-03-04T02:03:33.712Z,99.99
2019-03-04T02:04:33.762Z,99.99
2019-03-04T02:05:33.659Z,99.99
2019-03-04T02:06:33.640Z,99.99
2019-03-04T02:07:33.669Z,99.99
2019-03-04T02:08:33.593Z,99.99
2019-03-04T02:09:33.578Z,99.99
2019-03-04T02:10:33.539Z,99.99
2019-03-04T02:11:33.511Z,99.99
2019-03-04T02:12:33.487Z,99.71
2019-03-04T02:13:33.509Z,99.62
2019-03-04T02:14:33.451Z,99.23
2019-03-04T02:15:33.518Z,98.94
2019-03-04T02:16:33.380Z,98.08
2019-03-04T02:17:33.359Z,97.99
2019-03-04T02:18:33.462Z,97.52
2019-03-04T02:19:33.312Z,97.32
2019-03-04T02:20:33.348Z,97.52
2019-03-04T02:21:33.265Z,97.52
2019-03-04T02:22:33.241Z,97.52
2019-03-04T02:23:33.210Z,97.23
2019-03-04T02:24:33.270Z,96.84
2019-03-04T02:25:33.163Z,96.84
2019-03-04T02:26:33.190Z,96.66
2019-03-04T02:27:33.109Z,97.13
2019-03-04T02:28:33.077Z,96.17
2019-03-04T02:29:33.091Z,96.46
2019-03-04T02:30:33.047Z,95.51
2019-03-04T02:31:33.108Z,95.41
2019-03-04T02:32:32.982Z,94.74
2019-03-04T02:33:33.025Z,94.84
2019-03-04T02:34:32.939Z,93.98
2019-03-04T02:35:32.929Z,92.83
2019-03-04T02:36:32.893Z,92.93
2019-03-04T02:37:32.941Z,91.88
2019-03-04T02:38:32.836Z,92.36
2019-03-04T02:39:32.809Z,90.88
2019-03-04T02:40:32.785Z,91.06
2019-03-04T02:41:32.864Z,90.59
2019-03-04T02:42:32.730Z,90.01
2019-03-04T02:43:32.777Z,90.20
2019-03-04T02:44:32.680Z,89.73
2019-03-04T02:45:32.659Z,89.44
2019-03-04T02:46:32.689Z,89.06
2019-03-04T02:47:32.616Z,88.58
2019-03-04T02:48:32.613Z,88.58
2019-03-04T02:49:32.561Z,88.01
2019-03-04T02:50:32.534Z,87.15
2019-03-04T02:51:32.513Z,87.43
2019-03-04T02:52:32.518Z,87.34
2019-03-04T02:53:32.460Z,87.24
2019-03-04T02:54:32.531Z,86.86
2019-03-04T02:55:32.422Z,86.86
2019-03-04T02:56:32.383Z,86.76
2019-03-04T02:57:32.456Z,86.86
2019-03-04T02:58:32.332Z,86.00
2019-03-04T02:59:32.361Z,86.10
2019-03-04T03:00:32.281Z,85.52
2019-03-04T03:01:32.260Z,85.81
2019-03-04T03:02:32.232Z,84.95
2019-03-04T03:03:32.284Z,84.56
2019-03-04T03:04:32.184Z,84.09
2019-03-04T03:05:32.231Z,83.90
2019-03-04T03:06:32.133Z,83.70
2019-03-04T03:07:32.114Z,83.61
2019-03-04T03:08:32.082Z,83.51
2019-03-04T03:09:32.142Z,83.13
2019-03-04T03:10:32.034Z,82.89
2019-03-04T03:11:32.021Z,81.93
2019-03-04T03:12:31.984Z,81.36
2019-03-04T03:13:32.043Z,81.07
2019-03-04T03:14:31.934Z,80.69
2019-03-04T03:15:31.950Z,80.40
2019-03-04T03:16:31.881Z,79.93
2019-03-04T03:17:31.965Z,79.83
2019-03-04T03:18:31.831Z,80.21
2019-03-04T03:19:31.882Z,79.93
2019-03-04T03:20:31.780Z,79.73
2019-03-04T03:21:31.780Z,79.83
2019-03-04T03:22:31.732Z,78.97
2019-03-04T03:23:31.790Z,79.25
2019-03-04T03:24:31.685Z,79.54
2019-03-04T03:25:31.702Z,79.16
2019-03-04T03:26:31.635Z,79.44
2019-03-04T03:27:31.727Z,79.25
2019-03-04T03:28:31.582Z,78.87
2019-03-04T03:29:31.566Z,78.97
2019-03-04T03:30:31.543Z,79.06
2019-03-04T03:31:31.546Z,79.35
2019-03-04T03:32:31.483Z,79.73
2019-03-04T03:33:31.556Z,79.64
2019-03-04T03:34:31.435Z,79.25
2019-03-04T03:35:31.410Z,79.06
2019-03-04T03:36:31.471Z,79.64
2019-03-04T03:37:31.364Z,79.35
2019-03-04T03:38:31.382Z,79.44
2019-03-04T03:39:31.318Z,78.87
2019-03-04T03:40:31.291Z,79.44
2019-03-04T03:41:31.263Z,79.35
2019-03-04T03:42:31.303Z,79.54
2019-03-04T03:43:31.213Z,79.54
2019-03-04T03:44:31.213Z,80.21
2019-03-04T03:45:31.173Z,80.02
2019-03-04T03:46:31.141Z,80.11
2019-03-04T03:47:31.229Z,80.40
2019-03-04T03:48:31.103Z,80.69
2019-03-04T03:49:31.153Z,80.50
2019-03-04T03:50:31.044Z,80.88
2019-03-04T03:51:31.021Z,80.98
2019-03-04T03:52:31.004Z,80.98
2019-03-04T03:53:31.064Z,80.98
2019-03-04T03:54:30.942Z,81.16
2019-03-04T03:55:30.975Z,81.51
2019-03-04T03:56:30.891Z,81.70
2019-03-04T03:57:30.874Z,81.51
2019-03-04T03:58:30.845Z,82.08
2019-03-04T03:59:30.902Z,81.89
2019-03-04T04:00:30.798Z,81.60
2019-03-04T04:01:30.802Z,81.89
2019-03-04T04:02:30.766Z,82.18
2019-03-04T04:03:30.829Z,81.99
2019-03-04T04:04:30.712Z,81.70
2019-03-04T04:05:30.735Z,82.46
2019-03-04T04:06:30.651Z,82.65
2019-03-04T04:07:30.643Z,82.46
2019-03-04T04:08:30.604Z,81.89
2019-03-04T04:09:30.657Z,81.41
2019-03-04T04:10:30.543Z,81.13
2019-03-04T04:11:30.567Z,81.13
2019-03-04T04:12:30.497Z,80.36
2019-03-04T04:13:30.572Z,79.98
2019-03-04T04:14:30.456Z,80.17
2019-03-04T04:15:30.481Z,79.73
2019-03-04T04:16:30.404Z,79.69
2019-03-04T04:17:30.395Z,79.41
2019-03-04T04:18:30.355Z,78.55
2019-03-04T04:19:30.331Z,78.39
2019-03-04T04:20:30.319Z,77.92
2019-03-04T04:21:30.313Z,77.34
2019-03-04T04:22:30.252Z,77.34
2019-03-04T04:23:30.333Z,76.73
2019-03-04T04:24:30.217Z,77.82
2019-03-04T04:25:30.169Z,76.96
2019-03-04T04:26:30.252Z,76.48
2019-03-04T04:27:30.123Z,77.06
2019-03-04T04:28:30.154Z,76.39
2019-03-04T04:29:30.081Z,76.39
2019-03-04T04:30:30.063Z,76.86
2019-03-04T04:31:30.030Z,76.57
2019-03-04T04:32:30.090Z,76.67
2019-03-04T04:33:29.983Z,76.35
2019-03-04T04:34:30.042Z,76.64
2019-03-04T04:35:29.930Z,76.86
2019-03-04T04:36:29.901Z,77.25
2019-03-04T04:37:29.902Z,76.96
2019-03-04T04:38:29.862Z,76.86
2019-03-04T04:39:29.933Z,77.01
2019-03-04T04:40:29.836Z,76.86
2019-03-04T04:41:29.781Z,76.86
2019-03-04T04:42:29.763Z,77.01
2019-03-04T04:43:29.841Z,77.06
2019-03-04T04:44:29.698Z,77.11
2019-03-04T04:45:29.750Z,77.69
2019-03-04T04:46:29.660Z,77.78
2019-03-04T04:47:29.632Z,77.78
2019-03-04T04:48:29.610Z,78.07
2019-03-04T04:49:29.682Z,77.97
2019-03-04T04:50:29.568Z,78.36
2019-03-04T04:51:29.580Z,78.55
2019-03-04T04:52:29.511Z,78.45
2019-03-04T04:53:29.591Z,78.36
2019-03-04T04:54:29.461Z,78.36
2019-03-04T04:55:29.503Z,78.45
2019-03-04T04:56:29.409Z,78.26
2019-03-04T04:57:29.411Z,78.64
2019-03-04T04:58:29.432Z,78.74
2019-03-04T04:59:29.331Z,78.16
2019-03-04T05:00:31.214Z,78.26
2019-03-04T05:01:29.295Z,77.97
2019-03-04T05:02:29.342Z,78.74
2019-03-04T05:03:29.231Z,79.31
2019-03-04T05:04:29.220Z,78.74
2019-03-04T05:05:29.273Z,78.55
2019-03-04T05:06:29.165Z,78.55
2019-03-04T05:07:29.173Z,79.22
2019-03-04T05:08:29.117Z,79.41
2019-03-04T05:09:29.090Z,79.22
2019-03-04T05:10:29.073Z,78.83
2019-03-04T05:11:29.092Z,78.83
2019-03-04T05:12:29.016Z,79.02
2019-03-04T05:13:29.005Z,78.83
2019-03-04T05:14:28.967Z,79.22
2019-03-04T05:15:28.931Z,79.12
2019-03-04T05:16:28.922Z,79.69
2019-03-04T05:17:28.903Z,79.31
2019-03-04T05:18:28.932Z,78.93
2019-03-04T05:19:28.836Z,78.55
2019-03-04T05:20:28.822Z,78.83
2019-03-04T05:21:28.798Z,79.12
2019-03-04T05:22:28.860Z,79.22
2019-03-04T05:23:28.760Z,79.31
2019-03-04T05:24:29.594Z,79.12
2019-03-04T05:25:28.693Z,79.12
2019-03-04T05:26:28.662Z,79.69
2019-03-04T05:27:28.684Z,80.17
2019-03-04T05:28:28.613Z,81.41
2019-03-04T05:29:28.698Z,82.46
2019-03-04T05:30:28.560Z,84.05
2019-03-04T05:31:28.542Z,85.58
2019-03-04T05:32:28.517Z,85.86
2019-03-04T05:33:28.524Z,86.24
2019-03-04T05:34:28.464Z,87.20
2019-03-04T05:35:28.538Z,88.44
2019-03-04T05:36:28.439Z,88.82
2019-03-04T05:37:28.387Z,89.35
2019-03-04T05:38:28.473Z,91.55
2019-03-04T05:39:28.345Z,92.12
2019-03-04T05:40:28.368Z,94.60
2019-03-04T05:41:28.280Z,94.74
2019-03-04T05:42:28.384Z,96.98
2019-03-04T05:43:28.241Z,98.70
2019-03-04T05:44:28.294Z,99.99
2019-03-04T05:45:28.210Z,99.99
2019-03-04T05:46:28.207Z,99.99
2019-03-04T05:47:28.139Z,99.99
2019-03-04T05:48:28.116Z,99.99
2019-03-04T05:49:28.092Z,99.99
2019-03-04T05:50:28.116Z,99.99
2019-03-04T05:51:28.038Z,99.99
2019-03-04T05:52:28.030Z,99.99
2019-03-04T05:53:27.982Z,99.99
2019-03-04T05:54:27.960Z,99.99
2019-03-04T05:55:28.060Z,99.99
2019-03-04T05:56:27.917Z,99.99
2019-03-04T05:57:27.975Z,99.99
2019-03-04T05:58:27.878Z,99.99
2019-03-04T05:59:27.823Z,99.99
2019-03-04T06:00:27.818Z,99.99
2019-03-04T06:01:27.877Z,99.99
2019-03-04T06:02:27.748Z,99.99
2019-03-04T06:03:27.781Z,99.99
2019-03-04T06:04:27.704Z,99.99
2019-03-04T06:05:27.665Z,99.99
2019-03-04T06:06:27.703Z,99.99
2019-03-04T06:07:27.613Z,99.99
2019-03-04T06:08:27.611Z,99.99
2019-03-04T06:09:27.553Z,99.99
2019-03-04T06:10:27.549Z,99.99
2019-03-04T06:11:27.501Z,99.99
2019-03-04T06:12:27.534Z,99.99
2019-03-04T06:13:27.453Z,99.99
2019-03-04T06:14:27.441Z,99.99
2019-03-04T06:15:27.392Z,99.99
2019-03-04T06:16:27.361Z,99.99
2019-03-04T06:17:27.367Z,99.99
2019-03-04T06:18:27.310Z,99.99
2019-03-04T06:19:27.373Z,99.99
2019-03-04T06:20:27.252Z,99.99
2019-03-04T06:21:27.281Z,99.99
2019-03-04T06:22:27.201Z,99.99
2019-03-04T06:23:27.230Z,99.99
2019-03-04T06:24:27.145Z,99.99
2019-03-04T06:25:27.204Z,99.99
2019-03-04T06:26:27.082Z,99.99
2019-03-04T06:27:27.071Z,99.99
2019-03-04T06:28:27.032Z,99.99
2019-03-04T06:29:27.036Z,99.99
2019-03-04T06:30:26.983Z,99.99
2019-03-04T06:31:27.043Z,99.99
2019-03-04T06:32:26.920Z,99.99
2019-03-04T06:33:26.893Z,99.99
2019-03-04T06:34:26.953Z,99.99
2019-03-04T06:35:26.845Z,99.99
2019-03-04T06:36:26.861Z,99.99
2019-03-04T06:37:26.785Z,99.99
2019-03-04T06:38:26.751Z,99.99
2019-03-04T06:39:26.722Z,99.99
2019-03-04T06:40:26.784Z,99.99
2019-03-04T06:41:26.672Z,99.99
2019-03-04T06:42:26.719Z,99.99
2019-03-04T06:43:26.610Z,99.99
2019-03-04T06:44:26.585Z,99.99
2019-03-04T06:45:26.613Z,99.99
2019-03-04T06:46:26.531Z,99.99
2019-03-04T06:47:26.523Z,99.99
2019-03-04T06:48:26.470Z,99.99
2019-03-04T06:49:26.501Z,99.99
2019-03-04T06:50:26.421Z,99.99
2019-03-04T06:51:26.462Z,99.99
2019-03-04T06:52:26.365Z,99.99
2019-03-04T06:53:26.350Z,99.99
2019-03-04T06:54:26.312Z,99.99
2019-03-04T06:55:26.279Z,99.99
2019-03-04T06:56:26.293Z,99.99
2019-03-04T06:57:28.638Z,99.99
2019-03-04T06:58:26.282Z,99.99
2019-03-04T06:59:26.174Z,99.99
2019-03-04T07:00:26.139Z,99.99
2019-03-04T07:01:26.118Z,99.99
2019-03-04T07:02:26.118Z,99.99
2019-03-04T07:03:26.060Z,99.99
2019-03-04T07:04:26.121Z,99.99
2019-03-04T07:05:26.003Z,99.99
2019-03-04T07:06:25.971Z,99.99
2019-03-04T07:07:26.047Z,99.99
2019-03-04T07:08:25.953Z,99.99
2019-03-04T07:09:25.940Z,99.99
2019-03-04T07:10:25.869Z,99.99
2019-03-04T07:11:25.850Z,99.99
2019-03-04T07:12:25.815Z,99.99
2019-03-04T07:13:25.871Z,99.99
2019-03-04T07:14:25.765Z,99.99
2019-03-04T07:15:25.784Z,99.99
2019-03-04T07:16:25.689Z,99.99
2019-03-04T07:17:25.669Z,99.99
2019-03-04T07:18:25.656Z,99.99
2019-03-04T07:19:25.716Z,99.99
2019-03-04T07:20:25.579Z,99.99
2019-03-04T07:21:25.616Z,99.99
2019-03-04T07:22:25.534Z,99.99
2019-03-04T07:23:25.501Z,99.99
2019-03-04T07:24:25.546Z,99.99
2019-03-04T07:25:25.441Z,99.99
2019-03-04T07:26:25.452Z,99.99
2019-03-04T07:27:25.393Z,99.99
2019-03-04T07:28:25.360Z,99.99
2019-03-04T07:29:25.330Z,99.99
2019-03-04T07:30:25.364Z,99.99
2019-03-04T07:31:25.281Z,99.99
2019-03-04T07:32:25.288Z,99.99
2019-03-04T07:33:25.231Z,99.99
2019-03-04T07:34:25.204Z,99.99
2019-03-04T07:35:25.181Z,99.99
2019-03-04T07:36:25.154Z,99.99
2019-03-04T07:37:25.203Z,99.99
2019-03-04T07:38:25.090Z,99.99
2019-03-04T07:39:25.083Z,99.99
2019-03-04T07:40:25.034Z,99.99
2019-03-04T07:41:25.120Z,99.99
2019-03-04T07:42:24.985Z,99.99
2019-03-04T07:43:25.030Z,99.99
2019-03-04T07:44:24.936Z,99.99
2019-03-04T07:45:24.912Z,99.99
2019-03-04T07:46:24.954Z,99.99
2019-03-04T07:47:24.855Z,99.22
2019-03-04T07:48:24.863Z,99.84
2019-03-04T07:49:24.791Z,99.99
2019-03-04T07:50:24.871Z,98.32
2019-03-04T07:51:24.751Z,98.22
2019-03-04T07:52:24.782Z,96.80
2019-03-04T07:53:24.680Z,97.27
2019-03-04T07:54:24.692Z,97.36
2019-03-04T07:55:24.645Z,96.22
2019-03-04T07:56:24.602Z,94.32
2019-03-04T07:57:24.570Z,93.46
2019-03-04T07:58:25.873Z,92.89
2019-03-04T07:59:24.524Z,93.46
2019-03-04T08:00:24.522Z,92.69
2019-03-04T08:01:24.473Z,91.13
2019-03-04T08:02:24.548Z,91.79
2019-03-04T08:03:24.411Z,91.74
2019-03-04T08:04:24.462Z,91.13
2019-03-04T08:05:24.360Z,90.64
2019-03-04T08:06:24.368Z,91.31
2019-03-04T08:07:24.366Z,92.17
2019-03-04T08:08:24.282Z,91.13
2019-03-04T08:09:24.270Z,90.89
2019-03-04T08:10:24.222Z,91.22
2019-03-04T08:11:24.292Z,89.55
2019-03-04T08:12:24.171Z,89.17
2019-03-04T08:13:24.140Z,86.79
2019-03-04T08:14:24.201Z,86.26
2019-03-04T08:15:24.090Z,85.88
2019-03-04T08:16:24.122Z,85.60
2019-03-04T08:17:24.054Z,85.12
2019-03-04T08:18:24.017Z,85.12
2019-03-04T08:19:23.984Z,85.21
2019-03-04T08:20:24.033Z,84.16
2019-03-04T08:21:23.945Z,83.59
2019-03-04T08:22:23.944Z,83.21
2019-03-04T08:23:23.880Z,82.64
2019-03-04T08:24:23.852Z,82.35
2019-03-04T08:25:23.871Z,81.49
2019-03-04T08:26:23.794Z,81.40
2019-03-04T08:27:23.882Z,81.59
2019-03-04T08:28:23.754Z,81.59
2019-03-04T08:29:23.722Z,81.21
2019-03-04T08:30:23.694Z,80.64
2019-03-04T08:31:23.694Z,79.78
2019-03-04T08:32:23.633Z,79.78
2019-03-04T08:33:23.738Z,79.97
2019-03-04T08:34:30.795Z,80.26
2019-03-04T08:35:23.562Z,80.16
2019-03-04T08:36:23.633Z,80.35
2019-03-04T08:37:23.500Z,79.40
2019-03-04T08:38:23.543Z,79.40
2019-03-04T08:39:23.458Z,79.88
2019-03-04T08:40:23.442Z,79.72
2019-03-04T08:41:23.390Z,79.59
2019-03-04T08:42:23.451Z,79.53
2019-03-04T08:43:23.352Z,79.82
2019-03-04T08:44:23.362Z,79.53
2019-03-04T08:45:23.303Z,79.63
2019-03-04T08:46:23.283Z,80.39
2019-03-04T08:47:23.243Z,79.44
2019-03-04T08:48:23.307Z,79.35
2019-03-04T08:49:23.255Z,80.30
2019-03-04T08:50:23.203Z,80.68
2019-03-04T08:51:23.133Z,80.87
2019-03-04T08:52:23.112Z,80.49
2019-03-04T08:53:23.123Z,80.77
2019-03-04T08:54:23.059Z,80.58
2019-03-04T08:55:23.145Z,81.06
2019-03-04T08:56:23.002Z,82.11
2019-03-04T08:57:22.981Z,82.01
2019-03-04T08:58:23.007Z,82.87
2019-03-04T08:59:22.966Z,82.97
2019-03-04T09:00:22.896Z,82.87
2019-03-04T09:01:22.963Z,83.25
2019-03-04T09:02:22.844Z,82.87
2019-03-04T09:03:22.826Z,81.44
2019-03-04T09:04:22.884Z,81.82
2019-03-04T09:05:22.777Z,81.92
2019-03-04T09:06:22.789Z,82.40
2019-03-04T09:07:22.723Z,82.87
2019-03-04T09:08:22.692Z,82.87
2019-03-04T09:09:22.673Z,83.31
2019-03-04T09:10:22.722Z,84.55
2019-03-04T09:11:22.613Z,85.88
2019-03-04T09:12:22.623Z,86.16
2019-03-04T09:13:22.562Z,87.60
2019-03-04T09:14:22.531Z,88.89
2019-03-04T09:15:22.513Z,92.13
2019-03-04T09:16:22.544Z,92.79
2019-03-04T09:17:22.462Z,93.93
2019-03-04T09:18:22.455Z,94.32
2019-03-04T09:19:22.402Z,95.89
2019-03-04T09:20:22.463Z,97.89
2019-03-04T09:21:22.358Z,97.99
2019-03-04T09:22:22.381Z,98.84
2019-03-04T09:23:22.302Z,99.69
2019-03-04T09:24:22.302Z,99.99
2019-03-04T09:25:30.140Z,99.99
2019-03-04T09:26:22.235Z,99.99
2019-03-04T09:27:22.309Z,99.99
2019-03-04T09:28:22.163Z,99.99
2019-03-04T09:29:22.210Z,99.99
2019-03-04T09:30:22.123Z,99.99
2019-03-04T09:31:22.122Z,99.99
2019-03-04T09:32:22.051Z,99.99
2019-03-04T09:33:22.153Z,99.99
2019-03-04T09:34:22.002Z,99.99
2019-03-04T09:35:22.055Z,99.99
2019-03-04T09:36:22.063Z,99.99
2019-03-04T09:37:21.923Z,99.99
2019-03-04T09:38:21.969Z,99.99
2019-03-04T09:39:21.873Z,99.99
2019-03-04T09:40:21.881Z,99.99
2019-03-04T09:41:21.880Z,99.99
2019-03-04T09:42:21.801Z,99.99
2019-03-04T09:43:21.792Z,99.99
2019-03-04T09:44:21.732Z,99.99
2019-03-04T09:45:21.804Z,99.99
2019-03-04T09:46:21.681Z,99.99
2019-03-04T09:47:21.652Z,99.99
2019-03-04T09:48:21.722Z,99.99
2019-03-04T09:49:21.603Z,99.99
2019-03-04T09:50:21.643Z,99.99
2019-03-04T09:51:24.599Z,99.99
2019-03-04T09:52:21.523Z,99.99
2019-03-04T09:53:21.552Z,99.99
2019-03-04T09:54:21.462Z,99.99
2019-03-04T09:55:21.462Z,99.99
2019-03-04T09:56:21.410Z,99.99
2019-03-04T09:57:21.475Z,99.99
2019-03-04T09:58:21.411Z,99.99
2019-03-04T09:59:21.381Z,99.99
2019-03-04T10:00:21.301Z,99.99
2019-03-04T10:01:21.306Z,99.99
2019-03-04T10:02:21.244Z,99.99
2019-03-04T10:03:21.211Z,99.99
2019-03-04T10:04:21.190Z,99.99
2019-03-04T10:05:21.213Z,99.99
2019-03-04T10:06:21.135Z,99.99
2019-03-04T10:07:21.122Z,99.99
2019-03-04T10:08:21.082Z,99.99
2019-03-04T10:09:21.149Z,99.99
2019-03-04T10:10:21.025Z,99.99
2019-03-04T10:11:21.051Z,99.99
2019-03-04T10:12:20.972Z,99.99
2019-03-04T10:13:21.062Z,99.99
2019-03-04T10:14:20.926Z,99.99
2019-03-04T10:15:20.975Z,99.99
2019-03-04T10:16:20.862Z,99.99
2019-03-04T10:17:20.892Z,99.99
2019-03-04T10:18:20.812Z,99.99
2019-03-04T10:19:20.783Z,99.99
2019-03-04T10:20:20.765Z,99.99
2019-03-04T10:21:20.829Z,99.99
2019-03-04T10:22:20.702Z,99.99
2019-03-04T10:23:20.713Z,99.99
2019-03-04T10:24:20.642Z,99.99
2019-03-04T10:25:20.721Z,99.99
2019-03-04T10:26:23.000Z,99.99
2019-03-04T10:27:20.642Z,99.55
2019-03-04T10:28:20.532Z,99.55
2019-03-04T10:29:20.543Z,98.79
2019-03-04T10:30:20.554Z,98.22
2019-03-04T10:31:20.454Z,98.89
2019-03-04T10:32:20.461Z,98.60
2019-03-04T10:33:20.404Z,98.70
2019-03-04T10:34:20.471Z,98.22
2019-03-04T10:35:20.348Z,98.99
2019-03-04T10:36:20.393Z,98.75
2019-03-04T10:37:20.292Z,97.89
2019-03-04T10:38:22.830Z,98.51
2019-03-04T10:39:22.536Z,97.89
2019-03-04T10:40:20.314Z,98.79
2019-03-04T10:41:20.218Z,98.13
2019-03-04T10:42:20.228Z,99.99
2019-03-04T10:43:20.132Z,99.99
2019-03-04T10:44:20.138Z,99.99
2019-03-04T10:45:20.082Z,99.99
2019-03-04T10:46:20.051Z,99.99
2019-03-04T10:47:20.023Z,99.99
2019-03-04T10:48:20.051Z,99.99
2019-03-04T10:49:19.973Z,99.99
2019-03-04T10:50:19.985Z,99.99
2019-03-04T10:51:19.916Z,99.99
2019-03-04T10:52:20.991Z,99.99
2019-03-04T10:53:19.872Z,99.99
2019-03-04T10:54:19.881Z,99.99
2019-03-04T10:55:19.817Z,99.99
2019-03-04T10:56:19.902Z,99.99
2019-03-04T10:57:19.766Z,99.99
2019-03-04T10:58:19.805Z,99.99
2019-03-04T10:59:19.702Z,99.99
2019-03-04T11:00:19.712Z,99.99
2019-03-04T11:01:29.944Z,99.99
2019-03-04T11:02:19.612Z,99.99
2019-03-04T11:03:19.642Z,99.99
2019-03-04T11:04:19.550Z,99.99
2019-03-04T11:05:19.542Z,99.99
2019-03-04T11:06:19.503Z,99.99
2019-03-04T11:07:19.575Z,99.99
2019-03-04T11:08:19.452Z,99.99
2019-03-04T11:09:19.462Z,99.99
2019-03-04T11:10:19.393Z,99.99
2019-03-04T11:11:29.270Z,99.99
2019-03-04T11:12:19.333Z,99.99
2019-03-04T11:13:19.299Z,99.99
2019-03-04T11:14:19.281Z,99.99
2019-03-04T11:15:19.310Z,99.99
2019-03-04T11:16:19.221Z,99.99
2019-03-04T11:17:19.223Z,99.99
2019-03-04T11:18:19.163Z,99.99
2019-03-04T11:19:19.140Z,99.99
2019-03-04T11:20:19.120Z,99.99
2019-03-04T11:21:19.081Z,99.99
2019-03-04T11:22:21.096Z,99.99
2019-03-04T11:23:19.025Z,99.99
2019-03-04T11:24:18.990Z,99.99
2019-03-04T11:25:18.988Z,99.99
2019-03-04T11:26:18.967Z,99.99
2019-03-04T11:27:18.912Z,99.99
2019-03-04T11:28:18.976Z,99.99
2019-03-04T11:29:18.850Z,99.99
2019-03-04T11:30:18.882Z,99.99
2019-03-04T11:31:18.812Z,99.99
2019-03-04T11:32:18.794Z,99.99
2019-03-04T11:33:18.743Z,99.99
2019-03-04T11:34:18.813Z,99.99
2019-03-04T11:35:18.711Z,99.99
2019-03-04T11:36:18.666Z,99.99
2019-03-04T11:37:18.724Z,99.99
2019-03-04T11:38:18.613Z,99.99
2019-03-04T11:39:18.634Z,99.99
2019-03-04T11:40:18.562Z,99.99
2019-03-04T11:41:18.546Z,99.99
2019-03-04T11:42:18.493Z,99.99
2019-03-04T11:43:18.551Z,99.99
2019-03-04T11:44:18.453Z,99.99
2019-03-04T11:45:18.460Z,99.99
2019-03-04T11:46:18.382Z,99.99
2019-03-04T11:47:18.381Z,99.99
2019-03-04T11:48:18.325Z,99.99
2019-03-04T11:49:18.382Z,99.99
2019-03-04T11:50:18.274Z,99.99
2019-03-04T11:51:18.240Z,99.99
2019-03-04T11:52:18.214Z,99.99
2019-03-04T11:53:18.202Z,99.99
2019-03-04T11:54:18.166Z,99.99
2019-03-04T11:55:18.223Z,99.99
2019-03-04T11:56:18.103Z,99.99
2019-03-04T11:57:18.071Z,99.99
2019-03-04T11:58:18.140Z,99.99
2019-03-04T11:59:18.022Z,99.99
2019-03-04T12:00:18.041Z,99.99
2019-03-04T12:01:17.961Z,99.99
2019-03-04T12:02:17.943Z,99.99
2019-03-04T12:03:17.973Z,99.99
2019-03-04T12:04:17.881Z,99.99
2019-03-04T12:05:17.874Z,99.99
2019-03-04T12:06:17.830Z,99.99
2019-03-04T12:07:17.809Z,99.99
2019-03-04T12:08:17.770Z,99.99
2019-03-04T12:09:17.795Z,99.99
2019-03-04T12:10:17.725Z,99.99
2019-03-04T12:11:17.707Z,99.99
2019-03-04T12:12:17.663Z,99.99
2019-03-04T12:13:17.651Z,99.99
2019-03-04T12:14:17.611Z,99.99
2019-03-04T12:15:17.632Z,99.99
2019-03-04T12:16:17.552Z,99.99
2019-03-04T12:17:24.869Z,99.99
2019-03-04T12:19:21.535Z,99.99
2019-03-04T12:20:21.443Z,99.99
2019-03-04T12:22:25.440Z,99.99
2019-03-04T12:23:25.342Z,99.99
2019-03-04T12:25:18.301Z,99.99
2019-03-04T12:26:18.692Z,99.99
2019-03-04T12:28:22.213Z,99.99
2019-03-04T12:29:22.205Z,99.99
2019-03-04T12:31:28.297Z,99.99
2019-03-04T12:32:26.024Z,99.99
2019-03-04T12:34:30.023Z,99.99
2019-03-04T12:35:29.932Z,99.99
2019-03-04T12:37:33.886Z,99.99
2019-03-04T12:38:33.905Z,99.99
2019-03-04T12:40:37.802Z,99.99
2019-03-04T12:41:37.821Z,99.99
2019-03-04T12:43:41.775Z,99.99
2019-03-04T12:44:41.666Z,99.99
2019-03-04T12:46:45.772Z,99.99
2019-03-04T12:47:45.677Z,99.99
2019-03-04T12:49:49.670Z,99.99
2019-03-04T12:50:49.584Z,99.99
2019-03-04T12:52:53.595Z,99.99
2019-03-04T12:53:53.499Z,99.99
2019-03-04T12:55:46.442Z,99.99
2019-03-04T12:56:46.402Z,99.99
2019-03-04T12:58:50.352Z,99.99
2019-03-04T12:59:50.252Z,99.99
2019-03-04T13:01:54.212Z,99.99
2019-03-04T13:02:57.496Z,99.99
2019-03-04T13:04:58.172Z,99.99
2019-03-04T13:05:58.072Z,99.99
2019-03-04T13:08:02.081Z,99.99
2019-03-04T13:09:01.994Z,99.99
2019-03-04T13:11:05.991Z,99.99